| time (UTC) | temp F | wind direction | speed MPH | gust MPH | rain 1hr in | rain 24hr in | rain mn in | humidity % | barometer mb |
| 20260507130537 | 66 | 200 | 4.0 | 9.0 | 0.00 | 0.00 | 0.00 | 76 | 1014.2 |
| 20260507130034 | 65 | 187 | 4.0 | 9.0 | 0.00 | 0.00 | 0.00 | 76 | 1014.2 |
| 20260507125532 | 66 | 205 | 4.0 | 8.0 | 0.00 | 0.00 | 0.00 | 77 | 1014.2 |
| 20260507125032 | 65 | 220 | 4.0 | 8.0 | 0.00 | 0.00 | 0.00 | 78 | 1014.3 |
| 20260507124529 | 65 | 211 | 6.0 | 8.0 | 0.00 | 0.00 | 0.00 | 78 | 1014.2 |
| 20260507124028 | 66 | 195 | 4.0 | 8.0 | 0.00 | 0.00 | 0.00 | 76 | 1014.2 |
| 20260507123527 | 66 | 208 | 3.0 | 8.0 | 0.00 | 0.00 | 0.00 | 75 | 1014.2 |
| 20260507122523 | 66 | 202 | 3.0 | 6.0 | 0.00 | 0.00 | 0.00 | 76 | 1014.2 |
| 20260507122022 | 66 | 201 | 4.0 | 7.0 | 0.00 | 0.00 | 0.00 | 75 | 1014.3 |
| 20260507121521 | 66 | 204 | 4.0 | 7.0 | 0.00 | 0.00 | 0.00 | 74 | 1014.3 |
| 20260507121019 | 67 | 275 | 2.0 | 5.0 | 0.00 | 0.00 | 0.00 | 72 | 1014.3 |
| 20260507120518 | 67 | 266 | 2.0 | 6.0 | 0.00 | 0.00 | 0.00 | 73 | 1014.4 |
| 20260507120017 | 66 | 231 | 2.0 | 7.0 | 0.00 | 0.00 | 0.00 | 73 | 1014.3 |
| 20260507115516 | 66 | 209 | 4.0 | 9.0 | 0.00 | 0.00 | 0.00 | 73 | 1014.4 |
| 20260507115015 | 68 | 209 | 5.0 | 9.0 | 0.00 | 0.00 | 0.00 | 69 | 1014.5 |
| 20260507114514 | 72 | 230 | 1.0 | 6.0 | 0.00 | 0.00 | 0.00 | 63 | 1014.3 |
| 20260507114013 | 69 | 211 | 2.0 | 8.0 | 0.00 | 0.00 | 0.00 | 70 | 1014.5 |
| 20260507113512 | 65 | 266 | 4.0 | 8.0 | 0.00 | 0.00 | 0.00 | 77 | 1014.6 |
| 20260507113011 | 64 | 254 | 4.0 | 8.0 | 0.00 | 0.00 | 0.00 | 79 | 1014.7 |
| 20260507112510 | 63 | 227 | 5.0 | 8.0 | 0.00 | 0.00 | 0.00 | 80 | 1014.7 |
| 20260507112008 | 64 | 194 | 4.0 | 8.0 | 0.00 | 0.00 | 0.00 | 79 | 1014.6 |
| 20260507111507 | 63 | 202 | 5.0 | 9.0 | 0.00 | 0.00 | 0.00 | 78 | 1014.7 |
| 20260507111006 | 63 | 227 | 4.0 | 9.0 | 0.00 | 0.00 | 0.00 | 78 | 1014.8 |
| 20260507110005 | 63 | 202 | 6.0 | 10.0 | 0.00 | 0.00 | 0.00 | 79 | 1014.9 |
| 20260507105503 | 63 | 258 | 6.0 | 10.0 | 0.00 | 0.00 | 0.00 | 78 | 1014.9 |
| 20260507104501 | 64 | 262 | 6.0 | 10.0 | 0.00 | 0.00 | 0.00 | 78 | 1015.0 |
| 20260507103457 | 63 | 263 | 6.0 | 13.0 | 0.00 | 0.00 | 0.00 | 83 | 1015.1 |
| 20260507102955 | 64 | 254 | 6.0 | 13.0 | 0.00 | 0.00 | 0.00 | 83 | 1014.9 |
| 20260507101953 | 64 | 239 | 4.0 | 10.0 | 0.00 | 0.00 | 0.00 | 83 | 1015.0 |
| 20260507101453 | 64 | 246 | 4.0 | 8.0 | 0.00 | 0.00 | 0.00 | 83 | 1015.1 |
| 20260507100951 | 63 | 232 | 5.0 | 10.0 | 0.00 | 0.00 | 0.00 | 84 | 1015.0 |
| 20260507100450 | 62 | 246 | 5.0 | 10.0 | 0.00 | 0.00 | 0.00 | 84 | 1015.0 |
| 20260507095444 | 62 | 246 | 5.0 | 11.0 | 0.00 | 0.00 | 0.00 | 87 | 1015.0 |
| 20260507094942 | 62 | 227 | 6.0 | 11.0 | 0.00 | 0.00 | 0.00 | 88 | 1014.9 |
| 20260507094441 | 62 | 252 | 6.0 | 10.0 | 0.00 | 0.00 | 0.00 | 89 | 1014.9 |
| 20260507093935 | 62 | 235 | 6.0 | 11.0 | 0.00 | 0.00 | 0.00 | 88 | 1014.9 |
| 20260507092933 | 62 | 216 | 5.0 | 10.0 | 0.00 | 0.00 | 0.00 | 85 | 1014.8 |
| 20260507092430 | 63 | 216 | 5.0 | 11.0 | 0.00 | 0.00 | 0.00 | 86 | 1014.8 |
| 20260507091427 | 62 | 214 | 7.0 | 13.0 | 0.00 | 0.00 | 0.00 | 89 | 1014.5 |
| 20260507090926 | 63 | 240 | 6.0 | 12.0 | 0.00 | 0.00 | 0.00 | 87 | 1014.6 |
| 20260507090425 | 62 | 227 | 7.0 | 12.0 | 0.00 | 0.00 | 0.00 | 86 | 1014.5 |
| 20260507085924 | 63 | 217 | 6.0 | 12.0 | 0.00 | 0.00 | 0.00 | 87 | 1014.5 |
| 20260507085422 | 62 | 228 | 8.0 | 14.0 | 0.00 | 0.00 | 0.00 | 84 | 1014.4 |
| 20260507084921 | 64 | 226 | 7.0 | 14.0 | 0.00 | 0.00 | 0.00 | 82 | 1014.2 |
| 20260507084420 | 66 | 242 | 5.0 | 10.0 | 0.00 | 0.00 | 0.00 | 77 | 1014.0 |
| 20260507083918 | 65 | 207 | 5.0 | 12.0 | 0.00 | 0.00 | 0.00 | 80 | 1014.0 |
| 20260507083416 | 65 | 237 | 6.0 | 13.0 | 0.00 | 0.00 | 0.00 | 81 | 1013.9 |
| 20260507082915 | 65 | 218 | 6.0 | 13.0 | 0.00 | 0.00 | 0.00 | 82 | 1013.8 |
| 20260507082414 | 64 | 217 | 6.0 | 15.0 | 0.00 | 0.00 | 0.00 | 84 | 1013.7 |
| 20260507081912 | 64 | 235 | 7.0 | 12.0 | 0.00 | 0.00 | 0.00 | 85 | 1013.8 |
| 20260507080409 | 65 | 220 | 6.0 | 13.0 | 0.00 | 0.00 | 0.00 | 87 | 1013.6 |
| 20260507075904 | 66 | 199 | 5.0 | 10.0 | 0.00 | 0.00 | 0.00 | 84 | 1013.6 |
| 20260507075403 | 66 | 202 | 4.0 | 12.0 | 0.00 | 0.00 | 0.00 | 85 | 1013.6 |
| 20260507074902 | 65 | 193 | 4.0 | 10.0 | 0.00 | 0.00 | 0.00 | 87 | 1013.6 |
| 20260507074401 | 64 | 227 | 5.0 | 10.0 | 0.00 | 0.00 | 0.00 | 89 | 1013.8 |
| 20260507073900 | 64 | 201 | 5.0 | 9.0 | 0.00 | 0.00 | 0.00 | 92 | 1013.7 |
| 20260507073358 | 63 | 256 | 4.0 | 9.0 | 0.00 | 0.00 | 0.00 | 97 | 1013.6 |
| 20260507072857 | 61 | 210 | 4.0 | 8.0 | 0.00 | 0.00 | 0.00 | 98 | 1013.6 |
| 20260507072356 | 60 | 228 | 4.0 | 9.0 | 0.00 | 0.00 | 0.00 | 100 | 1013.7 |
| 20260507071854 | 60 | 201 | 4.0 | 9.0 | 0.00 | 0.00 | 0.00 | 100 | 1013.7 |
| 20260507071353 | 60 | 232 | 3.0 | 8.0 | 0.00 | 0.00 | 0.00 | 100 | 1013.8 |
| 20260507070853 | 59 | 224 | 5.0 | 8.0 | 0.00 | 0.00 | 0.00 | 100 | 1013.7 |
| 20260507065851 | 58 | 227 | 5.0 | 9.0 | 0.00 | 0.00 | 0.00 | 100 | 1013.6 |
| 20260507065349 | 59 | 211 | 3.0 | 8.0 | 0.00 | 0.00 | 0.00 | 100 | 1013.6 |
| 20260507064847 | 58 | 211 | 2.0 | 7.0 | 0.00 | 0.00 | 0.00 | 100 | 1013.5 |
| 20260507064347 | 58 | 200 | 4.0 | 7.0 | 0.00 | 0.00 | 0.00 | 100 | 1013.5 |
| 20260507063846 | 58 | 193 | 3.0 | 10.0 | 0.00 | 0.00 | 0.00 | 100 | 1013.5 |
| 20260507063342 | 57 | 202 | 6.0 | 10.0 | 0.00 | 0.00 | 0.00 | 100 | 1013.5 |
| 20260507062840 | 57 | 203 | 5.0 | 10.0 | 0.00 | 0.00 | 0.00 | 100 | 1013.4 |
| 20260507062339 | 57 | 211 | 3.0 | 9.0 | 0.00 | 0.00 | 0.00 | 100 | 1013.4 |
| 20260507061837 | 57 | 198 | 5.0 | 8.0 | 0.00 | 0.00 | 0.00 | 100 | 1013.4 |
| 20260507060834 | 57 | 191 | 4.0 | 8.0 | 0.00 | 0.00 | 0.00 | 100 | 1013.3 |
| 20260507060333 | 57 | 205 | 4.0 | 10.0 | 0.00 | 0.00 | 0.00 | 100 | 1013.2 |
| 20260507055831 | 57 | 204 | 5.0 | 10.0 | 0.00 | 0.00 | 0.00 | 100 | 1013.1 |
| 20260507055330 | 56 | 200 | 6.0 | 10.0 | 0.00 | 0.00 | 0.00 | 100 | 1013.0 |
| 20260507054830 | 56 | 198 | 5.0 | 10.0 | 0.00 | 0.00 | 0.00 | 100 | 1013.0 |
| 20260507054329 | 56 | 195 | 4.0 | 12.0 | 0.00 | 0.00 | 0.00 | 100 | 1012.9 |
| 20260507053826 | 56 | 188 | 5.0 | 12.0 | 0.00 | 0.00 | 0.00 | 100 | 1012.9 |
| 20260507053325 | 56 | 199 | 6.0 | 12.0 | 0.00 | 0.00 | 0.00 | 100 | 1012.8 |
| 20260507052821 | 56 | 203 | 5.0 | 10.0 | 0.00 | 0.00 | 0.00 | 100 | 1012.8 |
| 20260507052318 | 56 | 205 | 6.0 | 10.0 | 0.00 | 0.00 | 0.00 | 100 | 1012.7 |
| 20260507051817 | 57 | 192 | 5.0 | 10.0 | 0.00 | 0.00 | 0.00 | 100 | 1012.5 |
| 20260507051316 | 57 | 187 | 4.0 | 7.0 | 0.00 | 0.00 | 0.00 | 100 | 1012.5 |
| 20260507050814 | 57 | 167 | 1.0 | 6.0 | 0.00 | 0.00 | 0.00 | 100 | 1012.3 |
| 20260507050309 | 57 | 192 | 3.0 | 7.0 | 0.00 | 0.00 | 0.00 | 100 | 1012.3 |
| 20260507045807 | 56 | 207 | 3.0 | 7.0 | 0.00 | 0.00 | 0.00 | 100 | 1012.4 |
| 20260507045306 | 56 | 214 | 3.0 | 8.0 | 0.00 | 0.00 | 0.00 | 100 | 1012.3 |
| 20260507044803 | 56 | 213 | 4.0 | 8.0 | 0.00 | 0.00 | 0.00 | 100 | 1012.3 |
| 20260507044302 | 56 | 214 | 5.0 | 8.0 | 0.00 | 0.00 | 0.00 | 100 | 1012.2 |
| 20260507043801 | 56 | 202 | 3.0 | 10.0 | 0.00 | 0.00 | 0.00 | 100 | 1012.0 |
| 20260507043259 | 56 | 216 | 3.0 | 7.0 | 0.00 | 0.00 | 0.00 | 100 | 1012.1 |
| 20260507042758 | 56 | 215 | 3.0 | 6.0 | 0.00 | 0.00 | 0.00 | 100 | 1011.9 |
| 20260507042257 | 56 | 199 | 3.0 | 10.0 | 0.00 | 0.00 | 0.00 | 100 | 1011.9 |
| 20260507041755 | 56 | 206 | 4.0 | 10.0 | 0.00 | 0.00 | 0.00 | 100 | 1011.9 |
| 20260507041253 | 56 | 207 | 4.0 | 9.0 | 0.00 | 0.00 | 0.00 | 100 | 1011.9 |
| 20260507040751 | 56 | 211 | 3.0 | 7.0 | 0.00 | 0.00 | 0.00 | 100 | 1011.8 |
| 20260507040250 | 56 | 224 | 2.0 | 4.0 | 0.00 | 0.00 | 0.00 | 100 | 1011.8 |
| 20260507035748 | 56 | 213 | 2.0 | 5.0 | 0.00 | 0.00 | 0.00 | 100 | 1011.8 |
| 20260507035247 | 56 | 210 | 2.0 | 9.0 | 0.00 | 0.00 | 0.00 | 100 | 1011.7 |
| 20260507034746 | 56 | 216 | 5.0 | 9.0 | 0.00 | 0.00 | 0.00 | 100 | 1011.7 |
| 20260507034245 | 56 | 230 | 3.0 | 7.0 | 0.00 | 0.00 | 0.00 | 100 | 1011.6 |
| 20260507033744 | 56 | 218 | 3.0 | 8.0 | 0.00 | 0.00 | 0.00 | 100 | 1011.6 |
| 20260507032530 | 56 | 214 | 2.0 | 6.0 | 0.00 | 0.00 | 0.00 | 100 | 1011.4 |
| 20260507032029 | 56 | 204 | 3.0 | 7.0 | 0.00 | 0.00 | 0.00 | 100 | 1011.2 |
| 20260507031526 | 56 | 196 | 4.0 | 7.0 | 0.00 | 0.00 | 0.00 | 100 | 1011.2 |
| 20260507031025 | 56 | 196 | 4.0 | 7.0 | 0.00 | 0.00 | 0.00 | 100 | 1011.1 |
| 20260507030524 | 56 | 198 | 3.0 | 9.0 | 0.00 | 0.00 | 0.00 | 100 | 1011.1 |
| 20260507030021 | 56 | 191 | 4.0 | 9.0 | 0.00 | 0.00 | 0.00 | 100 | 1011.2 |
| 20260507025521 | 57 | 186 | 3.0 | 6.0 | 0.00 | 0.00 | 0.00 | 100 | 1011.3 |
| 20260507025019 | 57 | 187 | 3.0 | 8.0 | 0.00 | 0.00 | 0.00 | 100 | 1011.1 |
| 20260507024518 | 57 | 179 | 3.0 | 8.0 | 0.00 | 0.00 | 0.00 | 100 | 1011.2 |
| 20260507024017 | 57 | 187 | 4.0 | 12.0 | 0.00 | 0.00 | 0.00 | 100 | 1011.2 |
| 20260507023514 | 57 | 174 | 5.0 | 12.0 | 0.00 | 0.00 | 0.00 | 100 | 1011.2 |
| 20260507023013 | 57 | 173 | 5.0 | 10.0 | 0.00 | 0.00 | 0.00 | 100 | 1011.1 |
| 20260507022511 | 57 | 198 | 4.0 | 9.0 | 0.00 | 0.00 | 0.00 | 100 | 1011.1 |
| 20260507022010 | 57 | 205 | 5.0 | 9.0 | 0.00 | 0.00 | 0.00 | 100 | 1011.1 |
| 20260507021508 | 57 | 189 | 4.0 | 7.0 | 0.00 | 0.00 | 0.00 | 100 | 1011.0 |
| 20260507021007 | 57 | 196 | 2.0 | 10.0 | 0.00 | 0.00 | 0.00 | 100 | 1010.9 |
| 20260507020506 | 57 | 188 | 5.0 | 10.0 | 0.00 | 0.00 | 0.00 | 100 | 1010.9 |
| 20260507020005 | 57 | 177 | 3.0 | 7.0 | 0.00 | 0.00 | 0.00 | 100 | 1010.9 |
| 20260507015504 | 57 | 181 | 3.0 | 6.0 | 0.00 | 0.00 | 0.00 | 100 | 1010.8 |
| 20260507015003 | 57 | 175 | 2.0 | 6.0 | 0.00 | 0.00 | 0.00 | 100 | 1010.8 |
| 20260507014501 | 57 | 166 | 2.0 | 7.0 | 0.00 | 0.00 | 0.00 | 100 | 1010.9 |
| 20260507013459 | 58 | 179 | 5.0 | 8.0 | 0.00 | 0.00 | 0.00 | 100 | 1010.9 |
| 20260507012956 | 58 | 192 | 4.0 | 8.0 | 0.00 | 0.00 | 0.00 | 100 | 1010.9 |
| 20260507012455 | 58 | 190 | 4.0 | 8.0 | 0.00 | 0.00 | 0.00 | 100 | 1011.0 |
| 20260507011953 | 58 | 202 | 4.0 | 10.0 | 0.00 | 0.00 | 0.00 | 100 | 1010.9 |
| 20260507011451 | 58 | 202 | 5.0 | 11.0 | 0.00 | 0.00 | 0.00 | 100 | 1010.9 |
| 20260507010449 | 59 | 208 | 5.0 | 12.0 | 0.00 | 0.00 | 0.00 | 100 | 1010.6 |
| 20260507005947 | 59 | 203 | 5.0 | 12.0 | 0.00 | 0.00 | 0.00 | 100 | 1010.5 |
| 20260507005443 | 59 | 204 | 6.0 | 13.0 | 0.00 | 0.00 | 0.00 | 100 | 1010.5 |
| 20260507004942 | 59 | 200 | 5.0 | 18.0 | 0.00 | 0.00 | 0.00 | 100 | 1010.3 |
| 20260507004441 | 59 | 200 | 7.0 | 18.0 | 0.00 | 0.00 | 0.00 | 100 | 1010.2 |
| 20260507003937 | 60 | 202 | 7.0 | 21.0 | 0.00 | 0.00 | 0.00 | 100 | 1010.1 |
| 20260507003432 | 60 | 212 | 9.0 | 21.0 | 0.00 | 0.00 | 0.00 | 100 | 1009.9 |
| 20260507002931 | 60 | 207 | 10.0 | 19.0 | 0.00 | 0.00 | 0.00 | 100 | 1009.8 |
| 20260507001427 | 61 | 202 | 11.0 | 22.0 | 0.00 | 0.00 | 0.00 | 100 | 1009.8 |
| 20260507000926 | 61 | 201 | 8.0 | 21.0 | 0.00 | 0.00 | 0.00 | 100 | 1009.7 |
| 20260506235924 | 61 | 202 | 12.0 | 23.0 | 0.00 | 0.00 | 0.00 | 100 | 1009.6 |
| 20260506235422 | 62 | 201 | 12.0 | 23.0 | 0.00 | 0.00 | 0.00 | 100 | 1009.5 |
| 20260506234916 | 62 | 198 | 11.0 | 23.0 | 0.00 | 0.00 | 0.00 | 100 | 1009.5 |
| 20260506234356 | 62 | 201 | 14.0 | 23.0 | 0.00 | 0.00 | 0.00 | 98 | 1009.3 |
| 20260506233844 | 62 | 198 | 12.0 | 29.0 | 0.00 | 0.00 | 0.00 | 96 | 1009.2 |
| 20260506233325 | 63 | 197 | 17.0 | 29.0 | 0.00 | 0.00 | 0.00 | 94 | 1009.2 |
| 20260506232824 | 63 | 201 | 8.0 | 18.0 | 0.00 | 0.00 | 0.00 | 94 | 1009.0 |
| 20260506231722 | 62 | 182 | 8.0 | 16.0 | 0.00 | 0.00 | 0.00 | 98 | 1008.9 |
| 20260506231213 | 61 | 182 | 7.0 | 20.0 | 0.00 | 0.00 | 0.00 | 100 | 1008.7 |
| 20260506230711 | 62 | 171 | 9.0 | 19.0 | 0.00 | 0.00 | 0.00 | 98 | 1008.5 |
| 20260506230210 | 62 | 177 | 12.0 | 21.0 | 0.00 | 0.00 | 0.00 | 98 | 1008.6 |
| 20260506225710 | 63 | 174 | 14.0 | 23.0 | 0.00 | 0.00 | 0.00 | 97 | 1008.4 |
| 20260506225208 | 62 | 155 | 10.0 | 27.0 | 0.00 | 0.00 | 0.00 | 99 | 1008.4 |
| 20260506224707 | 62 | 161 | 12.0 | 22.0 | 0.00 | 0.00 | 0.00 | 100 | 1008.3 |
| 20260506224206 | 62 | 160 | 14.0 | 22.0 | 0.00 | 0.00 | 0.00 | 98 | 1008.2 |
| 20260506223704 | 62 | 165 | 10.0 | 23.0 | 0.00 | 0.00 | 0.00 | 100 | 1008.3 |
| 20260506223203 | 62 | 157 | 11.0 | 23.0 | 0.00 | 0.00 | 0.00 | 100 | 1008.1 |
| 20260506222702 | 62 | 161 | 14.0 | 24.0 | 0.00 | 0.00 | 0.00 | 100 | 1008.2 |
| 20260506222157 | 62 | 168 | 13.0 | 23.0 | 0.00 | 0.00 | 0.00 | 100 | 1008.2 |
| 20260506221150 | 63 | 162 | 13.0 | 28.0 | 0.00 | 0.00 | 0.00 | 99 | 1008.2 |
| 20260506220649 | 63 | 151 | 13.0 | 28.0 | 0.00 | 0.00 | 0.00 | 99 | 1008.0 |
| 20260506220147 | 63 | 164 | 14.0 | 26.0 | 0.00 | 0.00 | 0.00 | 99 | 1008.1 |
| 20260506215646 | 62 | 156 | 13.0 | 24.0 | 0.00 | 0.00 | 0.00 | 100 | 1007.9 |
| 20260506215145 | 62 | 158 | 11.0 | 23.0 | 0.00 | 0.00 | 0.00 | 100 | 1008.0 |
| 20260506214644 | 62 | 153 | 13.0 | 23.0 | 0.00 | 0.00 | 0.00 | 100 | 1008.0 |
| 20260506214143 | 62 | 159 | 12.0 | 23.0 | 0.00 | 0.00 | 0.00 | 100 | 1008.0 |
| 20260506213640 | 62 | 158 | 10.0 | 23.0 | 0.00 | 0.00 | 0.00 | 100 | 1008.3 |
| 20260506213139 | 62 | 162 | 9.0 | 20.0 | 0.00 | 0.00 | 0.00 | 100 | 1008.4 |
| 20260506212638 | 62 | 155 | 11.0 | 23.0 | 0.00 | 0.00 | 0.00 | 100 | 1008.2 |
| 20260506212136 | 62 | 164 | 10.0 | 23.0 | 0.00 | 0.00 | 0.00 | 100 | 1008.3 |
| 20260506211133 | 62 | 151 | 9.0 | 21.0 | 0.00 | 0.00 | 0.00 | 100 | 1008.1 |
| 20260506210632 | 62 | 163 | 8.0 | 21.0 | 0.00 | 0.00 | 0.00 | 100 | 1008.1 |
| 20260506210129 | 63 | 154 | 10.0 | 21.0 | 0.00 | 0.00 | 0.00 | 100 | 1008.1 |
| 20260506205126 | 63 | 152 | 10.0 | 22.0 | 0.00 | 0.00 | 0.00 | 100 | 1008.0 |
| 20260506204625 | 63 | 153 | 11.0 | 22.0 | 0.00 | 0.00 | 0.00 | 100 | 1007.9 |
| 20260506204123 | 63 | 145 | 10.0 | 28.0 | 0.00 | 0.00 | 0.00 | 100 | 1007.9 |
| 20260506203622 | 63 | 155 | 12.0 | 28.0 | 0.00 | 0.00 | 0.00 | 99 | 1007.8 |
| 20260506203120 | 63 | 153 | 9.0 | 23.0 | 0.00 | 0.00 | 0.00 | 100 | 1007.6 |
| 20260506202618 | 63 | 168 | 10.0 | 25.0 | 0.00 | 0.00 | 0.00 | 99 | 1007.6 |
| 20260506202115 | 63 | 162 | 12.0 | 25.0 | 0.00 | 0.00 | 0.00 | 98 | 1007.7 |
| 20260506201614 | 63 | 149 | 10.0 | 21.0 | 0.00 | 0.00 | 0.00 | 98 | 1007.6 |
| 20260506201110 | 63 | 159 | 12.0 | 22.0 | 0.00 | 0.00 | 0.00 | 98 | 1007.6 |
| 20260506200609 | 64 | 157 | 12.0 | 24.0 | 0.00 | 0.00 | 0.00 | 97 | 1007.5 |
| 20260506200108 | 64 | 152 | 14.0 | 24.0 | 0.00 | 0.00 | 0.00 | 96 | 1007.6 |
| 20260506195606 | 64 | 148 | 11.0 | 22.0 | 0.00 | 0.00 | 0.00 | 95 | 1007.2 |
| 20260506195104 | 64 | 152 | 9.0 | 24.0 | 0.00 | 0.00 | 0.00 | 96 | 1007.6 |
| 20260506194602 | 64 | 153 | 12.0 | 24.0 | 0.00 | 0.00 | 0.00 | 94 | 1007.2 |
| 20260506194101 | 64 | 157 | 10.0 | 19.0 | 0.00 | 0.00 | 0.00 | 96 | 1007.3 |
| 20260506193600 | 64 | 145 | 10.0 | 22.0 | 0.00 | 0.00 | 0.00 | 95 | 1007.4 |
| 20260506193057 | 65 | 149 | 8.0 | 22.0 | 0.00 | 0.00 | 0.00 | 93 | 1007.5 |
| 20260506192554 | 65 | 149 | 10.0 | 22.0 | 0.00 | 0.00 | 0.00 | 92 | 1007.5 |
| 20260506192052 | 65 | 154 | 10.0 | 17.0 | 0.00 | 0.00 | 0.00 | 93 | 1007.5 |
| 20260506191551 | 65 | 160 | 10.0 | 22.0 | 0.00 | 0.00 | 0.00 | 94 | 1007.3 |
| 20260506191047 | 65 | 165 | 13.0 | 22.0 | 0.00 | 0.00 | 0.00 | 92 | 1007.4 |
| 20260506190545 | 65 | 164 | 8.0 | 19.0 | 0.00 | 0.00 | 0.00 | 93 | 1007.4 |
| 20260506190044 | 65 | 164 | 7.0 | 22.0 | 0.00 | 0.00 | 0.00 | 92 | 1007.5 |
| 20260506185543 | 65 | 153 | 11.0 | 22.0 | 0.00 | 0.00 | 0.00 | 90 | 1007.3 |
| 20260506185042 | 65 | 163 | 9.0 | 22.0 | 0.00 | 0.00 | 0.00 | 91 | 1007.3 |
| 20260506184540 | 66 | 165 | 11.0 | 22.0 | 0.00 | 0.00 | 0.00 | 89 | 1007.2 |
| 20260506184039 | 66 | 164 | 10.0 | 22.0 | 0.00 | 0.00 | 0.00 | 89 | 1007.0 |
| 20260506183532 | 66 | 154 | 10.0 | 22.0 | 0.00 | 0.00 | 0.00 | 88 | 1006.9 |
| 20260506183030 | 66 | 159 | 9.0 | 24.0 | 0.00 | 0.00 | 0.00 | 87 | 1006.8 |
| 20260506182028 | 66 | 167 | 10.0 | 18.0 | 0.00 | 0.00 | 0.00 | 85 | 1006.8 |
| 20260506181527 | 66 | 170 | 9.0 | 17.0 | 0.00 | 0.00 | 0.00 | 85 | 1006.9 |
| 20260506181025 | 66 | 168 | 8.0 | 14.0 | 0.00 | 0.00 | 0.00 | 84 | 1006.9 |
| 20260506180523 | 66 | 160 | 8.0 | 16.0 | 0.00 | 0.00 | 0.00 | 83 | 1006.9 |
| 20260506180021 | 67 | 164 | 10.0 | 18.0 | 0.00 | 0.00 | 0.00 | 82 | 1006.8 |
| 20260506175520 | 67 | 165 | 10.0 | 25.0 | 0.00 | 0.00 | 0.00 | 81 | 1006.8 |
| 20260506175018 | 67 | 157 | 10.0 | 25.0 | 0.00 | 0.00 | 0.00 | 81 | 1006.6 |
| 20260506174518 | 67 | 162 | 12.0 | 26.0 | 0.00 | 0.00 | 0.00 | 80 | 1006.5 |
| 20260506173515 | 68 | 160 | 9.0 | 24.0 | 0.00 | 0.00 | 0.00 | 79 | 1006.4 |
| 20260506173013 | 68 | 153 | 12.0 | 23.0 | 0.00 | 0.00 | 0.00 | 77 | 1006.3 |
| 20260506172512 | 68 | 151 | 11.0 | 27.0 | 0.00 | 0.00 | 0.00 | 76 | 1006.5 |
| 20260506172009 | 69 | 154 | 11.0 | 26.0 | 0.00 | 0.00 | 0.00 | 75 | 1006.4 |
| 20260506171508 | 69 | 155 | 15.0 | 26.0 | 0.00 | 0.00 | 0.00 | 74 | 1006.2 |
| 20260506170505 | 69 | 162 | 8.0 | 22.0 | 0.00 | 0.00 | 0.00 | 73 | 1006.7 |
| 20260506170003 | 70 | 162 | 10.0 | 21.0 | 0.00 | 0.00 | 0.00 | 72 | 1006.6 |
| 20260506165502 | 70 | 173 | 6.0 | 22.0 | 0.00 | 0.00 | 0.00 | 70 | 1006.7 |
| 20260506165001 | 70 | 166 | 12.0 | 21.0 | 0.00 | 0.00 | 0.00 | 71 | 1006.8 |
| 20260506164459 | 70 | 173 | 13.0 | 21.0 | 0.00 | 0.00 | 0.00 | 69 | 1006.7 |
| 20260506163958 | 70 | 157 | 8.0 | 22.0 | 0.00 | 0.00 | 0.00 | 69 | 1006.8 |
| 20260506163456 | 71 | 165 | 12.0 | 22.0 | 0.00 | 0.00 | 0.00 | 68 | 1006.9 |
| 20260506162955 | 71 | 157 | 11.0 | 21.0 | 0.00 | 0.00 | 0.00 | 67 | 1006.9 |
| 20260506162454 | 71 | 156 | 13.0 | 21.0 | 0.00 | 0.00 | 0.00 | 66 | 1006.7 |
| 20260506161953 | 71 | 167 | 8.0 | 21.0 | 0.00 | 0.00 | 0.00 | 67 | 1006.8 |
| 20260506161452 | 71 | 165 | 10.0 | 21.0 | 0.00 | 0.00 | 0.00 | 67 | 1006.9 |
| 20260506160949 | 71 | 162 | 11.0 | 21.0 | 0.00 | 0.00 | 0.00 | 65 | 1007.0 |
| 20260506160447 | 72 | 172 | 9.0 | 21.0 | 0.00 | 0.00 | 0.00 | 64 | 1007.0 |
| 20260506155946 | 73 | 177 | 7.0 | 17.0 | 0.00 | 0.00 | 0.00 | 65 | 1007.2 |
| 20260506155445 | 72 | 169 | 7.0 | 19.0 | 0.00 | 0.00 | 0.00 | 65 | 1007.2 |
| 20260506154944 | 72 | 170 | 9.0 | 19.0 | 0.00 | 0.00 | 0.00 | 64 | 1007.1 |
| 20260506154443 | 73 | 172 | 6.0 | 19.0 | 0.00 | 0.00 | 0.00 | 66 | 1007.1 |
| 20260506153941 | 72 | 185 | 8.0 | 19.0 | 0.00 | 0.00 | 0.00 | 66 | 1007.2 |
| 20260506153440 | 73 | 175 | 8.0 | 19.0 | 0.00 | 0.00 | 0.00 | 67 | 1007.1 |
| 20260506152939 | 73 | 166 | 9.0 | 17.0 | 0.00 | 0.00 | 0.00 | 67 | 1007.1 |
| 20260506152436 | 72 | 163 | 8.0 | 22.0 | 0.00 | 0.00 | 0.00 | 66 | 1007.2 |
| 20260506151934 | 72 | 166 | 10.0 | 22.0 | 0.00 | 0.00 | 0.00 | 65 | 1007.4 |
| 20260506150930 | 73 | 175 | 7.0 | 21.0 | 0.00 | 0.00 | 0.00 | 64 | 1007.5 |
| 20260506150427 | 73 | 156 | 11.0 | 21.0 | 0.00 | 0.00 | 0.00 | 63 | 1007.5 |
| 20260506145924 | 73 | 155 | 10.0 | 24.0 | 0.00 | 0.00 | 0.00 | 63 | 1007.7 |
| 20260506145423 | 73 | 163 | 13.0 | 24.0 | 0.00 | 0.00 | 0.00 | 61 | 1007.4 |
| 20260506144421 | 74 | 169 | 9.0 | 24.0 | 0.00 | 0.00 | 0.00 | 58 | 1007.5 |
| 20260506143920 | 74 | 172 | 10.0 | 24.0 | 0.00 | 0.00 | 0.00 | 59 | 1007.6 |
| 20260506143419 | 75 | 173 | 8.0 | 20.0 | 0.00 | 0.00 | 0.00 | 58 | 1007.4 |
| 20260506142416 | 74 | 145 | 11.0 | 19.0 | 0.00 | 0.00 | 0.00 | 58 | 1007.4 |
| 20260506141915 | 74 | 142 | 8.0 | 17.0 | 0.00 | 0.00 | 0.00 | 57 | 1007.5 |
| 20260506140912 | 73 | 174 | 8.0 | 20.0 | 0.00 | 0.00 | 0.00 | 58 | 1007.6 |
| 20260506140411 | 73 | 160 | 7.0 | 18.0 | 0.00 | 0.00 | 0.00 | 60 | 1007.9 |
| 20260506134902 | 75 | 145 | 10.0 | 20.0 | 0.00 | 0.00 | 0.00 | 55 | 1007.9 |
| 20260506134357 | 76 | 132 | 10.0 | 22.0 | 0.00 | 0.00 | 0.00 | 55 | 1008.0 |
| 20260506133855 | 74 | 165 | 14.0 | 22.0 | 0.00 | 0.00 | 0.00 | 57 | 1007.9 |
| 20260506133346 | 77 | 150 | 8.0 | 19.0 | 0.00 | 0.00 | 0.00 | 54 | 1008.1 |
| 20260506132821 | 77 | 155 | 7.0 | 21.0 | 0.00 | 0.00 | 0.00 | 55 | 1008.2 |
| 20260506132319 | 76 | 160 | 10.0 | 22.0 | 0.00 | 0.00 | 0.00 | 57 | 1008.2 |
| 20260506131317 | 75 | 175 | 8.0 | 22.0 | 0.00 | 0.00 | 0.00 | 56 | 1008.1 |
| 20260506130759 | 75 | 167 | 10.0 | 22.0 | 0.00 | 0.00 | 0.00 | 60 | 1008.4 |